sensor_id;sensor_type;location;lat;lon;timestamp;P1;durP1;ratioP1;P2;durP2;ratioP2
8371;SDS011;4223;48.724;8.982;2022-12-10T00:02:25;14.97;;;10.50;;
8371;SDS011;4223;48.724;8.982;2022-12-10T00:04:53;9.73;;;8.93;;
8371;SDS011;4223;48.724;8.982;2022-12-10T00:07:20;9.40;;;8.33;;
8371;SDS011;4223;48.724;8.982;2022-12-10T00:09:47;14.40;;;12.17;;
8371;SDS011;4223;48.724;8.982;2022-12-10T00:12:14;9.37;;;8.57;;
8371;SDS011;4223;48.724;8.982;2022-12-10T00:14:41;9.67;;;8.90;;
8371;SDS011;4223;48.724;8.982;2022-12-10T00:17:07;9.60;;;8.77;;
8371;SDS011;4223;48.724;8.982;2022-12-10T00:19:34;14.37;;;11.97;;
8371;SDS011;4223;48.724;8.982;2022-12-10T00:22:03;10.27;;;8.93;;
8371;SDS011;4223;48.724;8.982;2022-12-10T00:24:29;10.37;;;9.10;;
8371;SDS011;4223;48.724;8.982;2022-12-10T00:26:56;11.93;;;10.83;;
8371;SDS011;4223;48.724;8.982;2022-12-10T00:29:23;16.57;;;10.13;;
8371;SDS011;4223;48.724;8.982;2022-12-10T00:31:50;19.00;;;12.57;;
8371;SDS011;4223;48.724;8.982;2022-12-10T00:34:17;11.80;;;10.73;;
8371;SDS011;4223;48.724;8.982;2022-12-10T00:36:45;34.37;;;13.13;;
8371;SDS011;4223;48.724;8.982;2022-12-10T00:39:15;10.60;;;9.87;;
8371;SDS011;4223;48.724;8.982;2022-12-10T00:41:43;13.37;;;12.37;;
8371;SDS011;4223;48.724;8.982;2022-12-10T00:44:10;14.67;;;12.90;;
8371;SDS011;4223;48.724;8.982;2022-12-10T00:46:37;12.83;;;11.63;;
8371;SDS011;4223;48.724;8.982;2022-12-10T00:49:04;13.10;;;11.87;;
8371;SDS011;4223;48.724;8.982;2022-12-10T00:51:31;11.93;;;10.57;;
8371;SDS011;4223;48.724;8.982;2022-12-10T00:53:58;11.17;;;10.07;;
8371;SDS011;4223;48.724;8.982;2022-12-10T00:56:28;12.33;;;10.07;;
8371;SDS011;4223;48.724;8.982;2022-12-10T00:58:57;12.17;;;10.97;;
8371;SDS011;4223;48.724;8.982;2022-12-10T01:01:25;11.87;;;10.73;;
8371;SDS011;4223;48.724;8.982;2022-12-10T01:03:55;11.03;;;10.17;;
8371;SDS011;4223;48.724;8.982;2022-12-10T01:06:24;12.20;;;11.10;;
8371;SDS011;4223;48.724;8.982;2022-12-10T01:08:53;13.30;;;11.40;;
8371;SDS011;4223;48.724;8.982;2022-12-10T01:11:23;12.60;;;11.10;;
8371;SDS011;4223;48.724;8.982;2022-12-10T01:13:54;12.00;;;11.20;;
8371;SDS011;4223;48.724;8.982;2022-12-10T01:16:21;10.13;;;9.20;;
8371;SDS011;4223;48.724;8.982;2022-12-10T01:18:49;14.53;;;11.83;;
8371;SDS011;4223;48.724;8.982;2022-12-10T01:21:19;11.57;;;10.63;;
8371;SDS011;4223;48.724;8.982;2022-12-10T01:23:47;12.07;;;10.73;;
8371;SDS011;4223;48.724;8.982;2022-12-10T01:26:17;13.23;;;11.40;;
8371;SDS011;4223;48.724;8.982;2022-12-10T01:28:45;13.70;;;12.40;;
8371;SDS011;4223;48.724;8.982;2022-12-10T01:31:14;12.00;;;11.07;;
8371;SDS011;4223;48.724;8.982;2022-12-10T01:33:43;12.00;;;10.67;;
8371;SDS011;4223;48.724;8.982;2022-12-10T01:36:11;11.23;;;10.13;;
8371;SDS011;4223;48.724;8.982;2022-12-10T01:38:40;11.73;;;10.60;;
8371;SDS011;4223;48.724;8.982;2022-12-10T01:41:07;11.20;;;10.20;;
8371;SDS011;4223;48.724;8.982;2022-12-10T01:43:49;11.13;;;10.23;;
8371;SDS011;4223;48.724;8.982;2022-12-10T01:46:22;10.40;;;9.53;;
8371;SDS011;4223;48.724;8.982;2022-12-10T01:48:50;15.73;;;11.50;;
8371;SDS011;4223;48.724;8.982;2022-12-10T01:51:17;10.87;;;9.57;;
8371;SDS011;4223;48.724;8.982;2022-12-10T01:53:44;13.20;;;10.83;;
8371;SDS011;4223;48.724;8.982;2022-12-10T01:56:13;10.17;;;9.30;;
8371;SDS011;4223;48.724;8.982;2022-12-10T01:58:42;10.57;;;8.37;;
8371;SDS011;4223;48.724;8.982;2022-12-10T02:01:10;14.27;;;12.87;;
8371;SDS011;4223;48.724;8.982;2022-12-10T02:03:44;13.57;;;11.30;;
8371;SDS011;4223;48.724;8.982;2022-12-10T02:06:25;21.63;;;9.43;;
8371;SDS011;4223;48.724;8.982;2022-12-10T02:09:25;14.47;;;11.23;;
8371;SDS011;4223;48.724;8.982;2022-12-10T02:12:00;9.10;;;8.33;;
8371;SDS011;4223;48.724;8.982;2022-12-10T02:14:35;10.53;;;9.50;;
8371;SDS011;4223;48.724;8.982;2022-12-10T02:17:11;16.87;;;10.67;;
8371;SDS011;4223;48.724;8.982;2022-12-10T02:19:51;10.23;;;9.20;;
8371;SDS011;4223;48.724;8.982;2022-12-10T02:22:34;13.00;;;10.40;;
8371;SDS011;4223;48.724;8.982;2022-12-10T02:25:05;10.50;;;9.70;;
8371;SDS011;4223;48.724;8.982;2022-12-10T02:27:35;11.23;;;10.33;;
8371;SDS011;4223;48.724;8.982;2022-12-10T02:30:08;12.00;;;10.47;;
8371;SDS011;4223;48.724;8.982;2022-12-10T02:32:36;8.67;;;7.60;;
8371;SDS011;4223;48.724;8.982;2022-12-10T02:35:08;15.33;;;12.07;;
8371;SDS011;4223;48.724;8.982;2022-12-10T02:37:38;12.50;;;10.63;;
8371;SDS011;4223;48.724;8.982;2022-12-10T02:40:11;11.93;;;10.50;;
8371;SDS011;4223;48.724;8.982;2022-12-10T02:42:43;9.53;;;8.63;;
8371;SDS011;4223;48.724;8.982;2022-12-10T02:45:15;11.83;;;8.83;;
8371;SDS011;4223;48.724;8.982;2022-12-10T02:47:44;12.23;;;10.93;;
8371;SDS011;4223;48.724;8.982;2022-12-10T02:50:11;10.27;;;9.37;;
8371;SDS011;4223;48.724;8.982;2022-12-10T02:52:42;10.77;;;9.67;;
8371;SDS011;4223;48.724;8.982;2022-12-10T02:55:10;10.10;;;9.07;;
8371;SDS011;4223;48.724;8.982;2022-12-10T02:57:40;11.93;;;10.80;;
8371;SDS011;4223;48.724;8.982;2022-12-10T03:00:13;7.27;;;6.57;;
8371;SDS011;4223;48.724;8.982;2022-12-10T03:02:51;11.73;;;10.67;;
8371;SDS011;4223;48.724;8.982;2022-12-10T03:05:41;9.33;;;8.03;;
8371;SDS011;4223;48.724;8.982;2022-12-10T03:08:13;13.73;;;10.03;;
8371;SDS011;4223;48.724;8.982;2022-12-10T03:10:44;7.63;;;6.87;;
8371;SDS011;4223;48.724;8.982;2022-12-10T03:13:17;8.30;;;7.60;;
8371;SDS011;4223;48.724;8.982;2022-12-10T03:15:49;14.17;;;9.47;;
8371;SDS011;4223;48.724;8.982;2022-12-10T03:18:19;11.87;;;10.23;;
8371;SDS011;4223;48.724;8.982;2022-12-10T03:20:48;10.50;;;8.90;;
8371;SDS011;4223;48.724;8.982;2022-12-10T03:23:19;10.90;;;9.90;;
8371;SDS011;4223;48.724;8.982;2022-12-10T03:25:46;11.00;;;9.90;;
8371;SDS011;4223;48.724;8.982;2022-12-10T03:28:15;10.93;;;9.93;;
8371;SDS011;4223;48.724;8.982;2022-12-10T03:30:43;21.60;;;11.77;;
8371;SDS011;4223;48.724;8.982;2022-12-10T03:33:12;12.37;;;10.60;;
8371;SDS011;4223;48.724;8.982;2022-12-10T03:35:39;11.33;;;10.40;;
8371;SDS011;4223;48.724;8.982;2022-12-10T03:38:07;13.53;;;12.03;;
8371;SDS011;4223;48.724;8.982;2022-12-10T03:40:35;9.13;;;8.37;;
8371;SDS011;4223;48.724;8.982;2022-12-10T03:43:02;12.07;;;9.07;;
8371;SDS011;4223;48.724;8.982;2022-12-10T03:45:29;12.53;;;10.17;;
8371;SDS011;4223;48.724;8.982;2022-12-10T03:47:56;7.33;;;6.77;;
8371;SDS011;4223;48.724;8.982;2022-12-10T03:50:24;12.07;;;10.97;;
8371;SDS011;4223;48.724;8.982;2022-12-10T03:52:51;12.30;;;10.83;;
8371;SDS011;4223;48.724;8.982;2022-12-10T03:55:18;10.03;;;9.03;;
8371;SDS011;4223;48.724;8.982;2022-12-10T03:57:45;11.07;;;10.00;;
8371;SDS011;4223;48.724;8.982;2022-12-10T04:00:13;12.33;;;11.27;;
8371;SDS011;4223;48.724;8.982;2022-12-10T04:02:40;10.73;;;9.83;;
8371;SDS011;4223;48.724;8.982;2022-12-10T04:05:07;9.53;;;8.67;;
8371;SDS011;4223;48.724;8.982;2022-12-10T04:07:35;10.27;;;9.47;;
8371;SDS011;4223;48.724;8.982;2022-12-10T04:10:03;8.10;;;7.30;;
8371;SDS011;4223;48.724;8.982;2022-12-10T04:12:30;17.83;;;10.07;;
8371;SDS011;4223;48.724;8.982;2022-12-10T04:14:57;10.53;;;9.60;;
8371;SDS011;4223;48.724;8.982;2022-12-10T04:17:41;13.03;;;10.53;;
8371;SDS011;4223;48.724;8.982;2022-12-10T04:20:08;10.17;;;9.13;;
8371;SDS011;4223;48.724;8.982;2022-12-10T04:22:57;9.97;;;9.17;;
8371;SDS011;4223;48.724;8.982;2022-12-10T04:25:42;10.93;;;10.03;;
8371;SDS011;4223;48.724;8.982;2022-12-10T04:28:38;9.60;;;8.70;;
8371;SDS011;4223;48.724;8.982;2022-12-10T04:31:05;8.83;;;8.13;;
8371;SDS011;4223;48.724;8.982;2022-12-10T04:33:32;10.13;;;8.97;;
8371;SDS011;4223;48.724;8.982;2022-12-10T04:35:58;8.90;;;8.03;;
8371;SDS011;4223;48.724;8.982;2022-12-10T04:38:27;14.47;;;10.90;;
8371;SDS011;4223;48.724;8.982;2022-12-10T04:40:54;13.83;;;12.00;;
8371;SDS011;4223;48.724;8.982;2022-12-10T04:43:20;9.47;;;8.67;;
8371;SDS011;4223;48.724;8.982;2022-12-10T04:45:47;10.60;;;9.60;;
8371;SDS011;4223;48.724;8.982;2022-12-10T04:48:14;11.17;;;10.27;;
8371;SDS011;4223;48.724;8.982;2022-12-10T04:50:41;13.00;;;11.43;;
8371;SDS011;4223;48.724;8.982;2022-12-10T04:53:08;14.17;;;10.20;;
8371;SDS011;4223;48.724;8.982;2022-12-10T04:55:36;10.97;;;9.87;;
8371;SDS011;4223;48.724;8.982;2022-12-10T04:58:03;10.70;;;9.73;;
8371;SDS011;4223;48.724;8.982;2022-12-10T05:00:29;10.67;;;9.70;;
8371;SDS011;4223;48.724;8.982;2022-12-10T05:02:56;11.93;;;10.13;;
8371;SDS011;4223;48.724;8.982;2022-12-10T05:05:23;12.03;;;10.87;;
8371;SDS011;4223;48.724;8.982;2022-12-10T05:07:50;11.73;;;10.67;;
8371;SDS011;4223;48.724;8.982;2022-12-10T05:10:17;12.23;;;10.43;;
8371;SDS011;4223;48.724;8.982;2022-12-10T05:12:45;9.17;;;8.40;;
8371;SDS011;4223;48.724;8.982;2022-12-10T05:15:12;12.30;;;11.10;;
8371;SDS011;4223;48.724;8.982;2022-12-10T05:17:39;12.33;;;10.50;;
8371;SDS011;4223;48.724;8.982;2022-12-10T05:20:06;12.83;;;11.80;;
8371;SDS011;4223;48.724;8.982;2022-12-10T05:22:34;11.77;;;9.90;;
8371;SDS011;4223;48.724;8.982;2022-12-10T05:25:18;12.33;;;10.80;;
8371;SDS011;4223;48.724;8.982;2022-12-10T05:27:47;11.67;;;10.57;;
8371;SDS011;4223;48.724;8.982;2022-12-10T05:30:13;12.40;;;10.00;;
8371;SDS011;4223;48.724;8.982;2022-12-10T05:32:40;16.17;;;10.70;;
8371;SDS011;4223;48.724;8.982;2022-12-10T05:35:07;9.67;;;8.87;;
8371;SDS011;4223;48.724;8.982;2022-12-10T05:37:34;9.63;;;8.90;;
8371;SDS011;4223;48.724;8.982;2022-12-10T05:40:01;11.03;;;9.77;;
8371;SDS011;4223;48.724;8.982;2022-12-10T05:42:28;11.00;;;9.87;;
8371;SDS011;4223;48.724;8.982;2022-12-10T05:44:56;10.97;;;9.97;;
8371;SDS011;4223;48.724;8.982;2022-12-10T05:47:23;12.00;;;10.77;;
8371;SDS011;4223;48.724;8.982;2022-12-10T05:49:50;7.80;;;6.90;;
8371;SDS011;4223;48.724;8.982;2022-12-10T05:52:17;11.23;;;9.87;;
8371;SDS011;4223;48.724;8.982;2022-12-10T05:54:44;11.10;;;10.10;;
8371;SDS011;4223;48.724;8.982;2022-12-10T05:57:11;12.53;;;11.47;;
8371;SDS011;4223;48.724;8.982;2022-12-10T05:59:38;12.43;;;11.30;;
8371;SDS011;4223;48.724;8.982;2022-12-10T06:02:06;11.67;;;10.57;;
8371;SDS011;4223;48.724;8.982;2022-12-10T06:04:32;13.23;;;11.37;;
8371;SDS011;4223;48.724;8.982;2022-12-10T06:06:59;10.63;;;9.83;;
8371;SDS011;4223;48.724;8.982;2022-12-10T06:09:26;16.90;;;12.07;;
8371;SDS011;4223;48.724;8.982;2022-12-10T06:11:53;14.27;;;12.37;;
8371;SDS011;4223;48.724;8.982;2022-12-10T06:14:20;23.83;;;14.23;;
8371;SDS011;4223;48.724;8.982;2022-12-10T06:16:46;11.77;;;8.93;;
8371;SDS011;4223;48.724;8.982;2022-12-10T06:19:15;12.57;;;11.27;;
8371;SDS011;4223;48.724;8.982;2022-12-10T06:21:41;26.07;;;14.73;;
8371;SDS011;4223;48.724;8.982;2022-12-10T06:24:08;12.80;;;11.50;;
8371;SDS011;4223;48.724;8.982;2022-12-10T06:26:35;16.17;;;14.13;;
8371;SDS011;4223;48.724;8.982;2022-12-10T06:29:02;12.67;;;11.57;;
8371;SDS011;4223;48.724;8.982;2022-12-10T06:31:30;18.50;;;13.30;;
8371;SDS011;4223;48.724;8.982;2022-12-10T06:33:57;13.00;;;11.17;;
8371;SDS011;4223;48.724;8.982;2022-12-10T06:36:25;11.83;;;10.93;;
8371;SDS011;4223;48.724;8.982;2022-12-10T06:38:52;12.57;;;11.33;;
8371;SDS011;4223;48.724;8.982;2022-12-10T06:41:19;14.30;;;10.20;;
8371;SDS011;4223;48.724;8.982;2022-12-10T06:43:46;14.97;;;12.13;;
8371;SDS011;4223;48.724;8.982;2022-12-10T06:46:14;12.43;;;11.37;;
8371;SDS011;4223;48.724;8.982;2022-12-10T06:48:42;11.77;;;10.73;;
8371;SDS011;4223;48.724;8.982;2022-12-10T06:51:10;13.03;;;10.53;;
8371;SDS011;4223;48.724;8.982;2022-12-10T06:53:39;13.37;;;12.17;;
8371;SDS011;4223;48.724;8.982;2022-12-10T06:56:07;18.30;;;13.83;;
8371;SDS011;4223;48.724;8.982;2022-12-10T06:58:37;13.40;;;10.30;;
8371;SDS011;4223;48.724;8.982;2022-12-10T07:01:05;12.13;;;10.90;;
8371;SDS011;4223;48.724;8.982;2022-12-10T07:03:34;16.07;;;13.30;;
8371;SDS011;4223;48.724;8.982;2022-12-10T07:06:02;11.10;;;10.00;;
8371;SDS011;4223;48.724;8.982;2022-12-10T07:08:30;10.83;;;9.93;;
8371;SDS011;4223;48.724;8.982;2022-12-10T07:10:58;12.37;;;10.13;;
8371;SDS011;4223;48.724;8.982;2022-12-10T07:13:25;11.07;;;10.17;;
8371;SDS011;4223;48.724;8.982;2022-12-10T07:15:52;11.17;;;10.00;;
8371;SDS011;4223;48.724;8.982;2022-12-10T07:18:19;13.03;;;12.03;;
8371;SDS011;4223;48.724;8.982;2022-12-10T07:20:46;11.73;;;10.27;;
8371;SDS011;4223;48.724;8.982;2022-12-10T07:23:13;11.27;;;10.17;;
8371;SDS011;4223;48.724;8.982;2022-12-10T07:25:40;14.00;;;12.73;;
8371;SDS011;4223;48.724;8.982;2022-12-10T07:28:08;15.43;;;12.43;;
8371;SDS011;4223;48.724;8.982;2022-12-10T07:30:35;11.53;;;10.63;;
8371;SDS011;4223;48.724;8.982;2022-12-10T07:33:02;18.67;;;9.83;;
8371;SDS011;4223;48.724;8.982;2022-12-10T07:35:29;12.07;;;10.87;;
8371;SDS011;4223;48.724;8.982;2022-12-10T07:37:56;10.67;;;9.77;;
8371;SDS011;4223;48.724;8.982;2022-12-10T07:40:23;14.80;;;12.53;;
8371;SDS011;4223;48.724;8.982;2022-12-10T07:42:49;13.47;;;11.37;;
8371;SDS011;4223;48.724;8.982;2022-12-10T07:45:18;12.63;;;11.63;;
8371;SDS011;4223;48.724;8.982;2022-12-10T07:47:44;12.00;;;10.63;;
8371;SDS011;4223;48.724;8.982;2022-12-10T07:50:11;10.90;;;10.10;;
8371;SDS011;4223;48.724;8.982;2022-12-10T07:52:38;13.37;;;11.03;;
8371;SDS011;4223;48.724;8.982;2022-12-10T07:55:05;13.53;;;12.33;;
8371;SDS011;4223;48.724;8.982;2022-12-10T07:57:33;13.60;;;12.30;;
8371;SDS011;4223;48.724;8.982;2022-12-10T08:00:00;9.80;;;9.07;;
8371;SDS011;4223;48.724;8.982;2022-12-10T08:02:28;15.13;;;13.57;;
8371;SDS011;4223;48.724;8.982;2022-12-10T08:04:55;11.60;;;10.80;;
8371;SDS011;4223;48.724;8.982;2022-12-10T08:07:22;12.17;;;11.10;;
8371;SDS011;4223;48.724;8.982;2022-12-10T08:09:48;11.20;;;10.17;;
8371;SDS011;4223;48.724;8.982;2022-12-10T08:12:15;11.17;;;10.03;;
8371;SDS011;4223;48.724;8.982;2022-12-10T08:14:42;12.93;;;11.90;;
8371;SDS011;4223;48.724;8.982;2022-12-10T08:17:09;13.33;;;12.07;;
8371;SDS011;4223;48.724;8.982;2022-12-10T08:19:39;13.70;;;10.10;;
8371;SDS011;4223;48.724;8.982;2022-12-10T08:22:06;15.97;;;11.97;;
8371;SDS011;4223;48.724;8.982;2022-12-10T08:24:33;12.07;;;10.93;;
8371;SDS011;4223;48.724;8.982;2022-12-10T08:27:00;12.77;;;11.70;;
8371;SDS011;4223;48.724;8.982;2022-12-10T08:29:27;11.73;;;10.70;;
8371;SDS011;4223;48.724;8.982;2022-12-10T08:31:54;11.57;;;10.67;;
8371;SDS011;4223;48.724;8.982;2022-12-10T08:34:21;9.57;;;8.97;;
8371;SDS011;4223;48.724;8.982;2022-12-10T08:36:49;13.07;;;11.87;;
8371;SDS011;4223;48.724;8.982;2022-12-10T08:39:16;11.77;;;10.67;;
8371;SDS011;4223;48.724;8.982;2022-12-10T08:41:43;15.33;;;12.57;;
8371;SDS011;4223;48.724;8.982;2022-12-10T08:44:11;11.87;;;10.90;;
8371;SDS011;4223;48.724;8.982;2022-12-10T08:46:38;10.80;;;10.03;;
8371;SDS011;4223;48.724;8.982;2022-12-10T08:49:06;11.33;;;10.17;;
8371;SDS011;4223;48.724;8.982;2022-12-10T08:51:33;18.63;;;12.13;;
8371;SDS011;4223;48.724;8.982;2022-12-10T08:54:01;11.73;;;10.83;;
8371;SDS011;4223;48.724;8.982;2022-12-10T08:56:28;12.87;;;11.77;;
8371;SDS011;4223;48.724;8.982;2022-12-10T08:58:55;9.80;;;9.20;;
8371;SDS011;4223;48.724;8.982;2022-12-10T09:01:22;12.47;;;11.43;;
8371;SDS011;4223;48.724;8.982;2022-12-10T09:03:49;14.37;;;12.07;;
8371;SDS011;4223;48.724;8.982;2022-12-10T09:06:17;14.17;;;11.53;;
8371;SDS011;4223;48.724;8.982;2022-12-10T09:08:45;11.80;;;10.67;;
8371;SDS011;4223;48.724;8.982;2022-12-10T09:11:15;13.37;;;12.07;;
8371;SDS011;4223;48.724;8.982;2022-12-10T09:13:44;11.43;;;10.53;;
8371;SDS011;4223;48.724;8.982;2022-12-10T09:16:11;10.93;;;9.70;;
8371;SDS011;4223;48.724;8.982;2022-12-10T09:18:38;11.97;;;10.80;;
8371;SDS011;4223;48.724;8.982;2022-12-10T09:21:05;9.70;;;8.53;;
8371;SDS011;4223;48.724;8.982;2022-12-10T09:23:33;11.83;;;9.03;;
8371;SDS011;4223;48.724;8.982;2022-12-10T09:26:00;9.67;;;8.83;;
8371;SDS011;4223;48.724;8.982;2022-12-10T09:28:28;7.90;;;7.37;;
8371;SDS011;4223;48.724;8.982;2022-12-10T09:30:55;10.20;;;9.40;;
8371;SDS011;4223;48.724;8.982;2022-12-10T09:33:22;7.67;;;7.13;;
8371;SDS011;4223;48.724;8.982;2022-12-10T09:35:49;10.53;;;9.33;;
8371;SDS011;4223;48.724;8.982;2022-12-10T09:38:16;12.27;;;11.07;;
8371;SDS011;4223;48.724;8.982;2022-12-10T09:40:45;11.63;;;10.63;;
8371;SDS011;4223;48.724;8.982;2022-12-10T09:43:19;10.23;;;9.33;;
8371;SDS011;4223;48.724;8.982;2022-12-10T09:45:55;11.33;;;10.43;;
8371;SDS011;4223;48.724;8.982;2022-12-10T09:48:28;9.87;;;8.93;;
8371;SDS011;4223;48.724;8.982;2022-12-10T09:51:02;11.13;;;10.23;;
8371;SDS011;4223;48.724;8.982;2022-12-10T09:53:36;11.37;;;10.30;;
8371;SDS011;4223;48.724;8.982;2022-12-10T09:56:05;12.67;;;9.47;;
8371;SDS011;4223;48.724;8.982;2022-12-10T09:58:33;8.40;;;7.80;;
8371;SDS011;4223;48.724;8.982;2022-12-10T10:01:04;11.63;;;10.63;;
8371;SDS011;4223;48.724;8.982;2022-12-10T10:03:34;10.13;;;9.10;;
8371;SDS011;4223;48.724;8.982;2022-12-10T10:06:04;10.23;;;9.43;;
8371;SDS011;4223;48.724;8.982;2022-12-10T10:08:32;9.07;;;8.27;;
8371;SDS011;4223;48.724;8.982;2022-12-10T10:11:02;12.90;;;11.43;;
8371;SDS011;4223;48.724;8.982;2022-12-10T10:13:31;13.50;;;10.23;;
8371;SDS011;4223;48.724;8.982;2022-12-10T10:16:01;7.40;;;6.83;;
8371;SDS011;4223;48.724;8.982;2022-12-10T10:18:48;9.77;;;8.97;;
8371;SDS011;4223;48.724;8.982;2022-12-10T10:21:20;11.93;;;10.77;;
8371;SDS011;4223;48.724;8.982;2022-12-10T10:23:48;17.07;;;7.40;;
8371;SDS011;4223;48.724;8.982;2022-12-10T10:26:15;9.90;;;9.00;;
8371;SDS011;4223;48.724;8.982;2022-12-10T10:28:43;9.53;;;8.73;;
8371;SDS011;4223;48.724;8.982;2022-12-10T10:31:12;9.07;;;8.17;;
8371;SDS011;4223;48.724;8.982;2022-12-10T10:33:50;8.57;;;7.77;;
8371;SDS011;4223;48.724;8.982;2022-12-10T10:36:22;9.07;;;8.43;;
8371;SDS011;4223;48.724;8.982;2022-12-10T10:38:50;10.63;;;9.83;;
8371;SDS011;4223;48.724;8.982;2022-12-10T10:41:17;11.37;;;9.90;;
8371;SDS011;4223;48.724;8.982;2022-12-10T10:43:45;11.70;;;8.63;;
8371;SDS011;4223;48.724;8.982;2022-12-10T10:46:12;9.43;;;8.57;;
8371;SDS011;4223;48.724;8.982;2022-12-10T10:48:43;8.70;;;7.93;;
8371;SDS011;4223;48.724;8.982;2022-12-10T10:51:15;8.97;;;8.27;;
8371;SDS011;4223;48.724;8.982;2022-12-10T10:53:45;7.83;;;7.13;;
8371;SDS011;4223;48.724;8.982;2022-12-10T10:56:15;9.17;;;8.47;;
8371;SDS011;4223;48.724;8.982;2022-12-10T10:58:50;7.53;;;6.93;;
8371;SDS011;4223;48.724;8.982;2022-12-10T11:01:20;10.50;;;8.87;;
8371;SDS011;4223;48.724;8.982;2022-12-10T11:03:53;8.43;;;7.80;;
8371;SDS011;4223;48.724;8.982;2022-12-10T11:06:23;8.13;;;7.33;;
8371;SDS011;4223;48.724;8.982;2022-12-10T11:08:50;13.93;;;7.33;;
8371;SDS011;4223;48.724;8.982;2022-12-10T11:11:22;8.50;;;7.80;;
8371;SDS011;4223;48.724;8.982;2022-12-10T11:13:51;10.63;;;7.87;;
8371;SDS011;4223;48.724;8.982;2022-12-10T11:16:19;8.47;;;7.77;;
8371;SDS011;4223;48.724;8.982;2022-12-10T11:18:56;8.20;;;7.43;;
8371;SDS011;4223;48.724;8.982;2022-12-10T11:21:27;8.60;;;7.80;;
8371;SDS011;4223;48.724;8.982;2022-12-10T11:23:55;7.87;;;7.27;;
8371;SDS011;4223;48.724;8.982;2022-12-10T11:26:31;8.07;;;7.33;;
8371;SDS011;4223;48.724;8.982;2022-12-10T11:29:26;8.73;;;7.17;;
8371;SDS011;4223;48.724;8.982;2022-12-10T11:32:09;8.70;;;7.90;;
8371;SDS011;4223;48.724;8.982;2022-12-10T11:34:49;7.20;;;6.73;;
8371;SDS011;4223;48.724;8.982;2022-12-10T11:37:28;6.67;;;6.13;;
8371;SDS011;4223;48.724;8.982;2022-12-10T11:40:03;8.73;;;6.50;;
8371;SDS011;4223;48.724;8.982;2022-12-10T11:42:43;7.37;;;6.87;;
8371;SDS011;4223;48.724;8.982;2022-12-10T11:45:18;7.90;;;7.23;;
8371;SDS011;4223;48.724;8.982;2022-12-10T11:47:54;10.70;;;8.93;;
8371;SDS011;4223;48.724;8.982;2022-12-10T11:50:33;9.77;;;7.77;;
8371;SDS011;4223;48.724;8.982;2022-12-10T11:53:12;8.53;;;7.73;;
8371;SDS011;4223;48.724;8.982;2022-12-10T11:55:53;7.00;;;6.27;;
8371;SDS011;4223;48.724;8.982;2022-12-10T11:58:41;9.07;;;7.43;;
8371;SDS011;4223;48.724;8.982;2022-12-10T12:01:28;7.50;;;6.90;;
8371;SDS011;4223;48.724;8.982;2022-12-10T12:04:10;7.73;;;7.07;;
8371;SDS011;4223;48.724;8.982;2022-12-10T12:07:10;8.90;;;8.07;;
8371;SDS011;4223;48.724;8.982;2022-12-10T12:09:49;12.37;;;8.93;;
8371;SDS011;4223;48.724;8.982;2022-12-10T12:12:31;10.77;;;8.23;;
8371;SDS011;4223;48.724;8.982;2022-12-10T12:15:12;7.10;;;6.60;;
8371;SDS011;4223;48.724;8.982;2022-12-10T12:17:45;8.53;;;7.93;;
8371;SDS011;4223;48.724;8.982;2022-12-10T12:20:16;9.23;;;8.00;;
8371;SDS011;4223;48.724;8.982;2022-12-10T12:22:50;10.00;;;6.10;;
8371;SDS011;4223;48.724;8.982;2022-12-10T12:25:22;6.40;;;5.70;;
8371;SDS011;4223;48.724;8.982;2022-12-10T12:27:54;10.30;;;9.33;;
8371;SDS011;4223;48.724;8.982;2022-12-10T12:30:26;8.17;;;7.03;;
8371;SDS011;4223;48.724;8.982;2022-12-10T12:32:54;7.87;;;7.27;;
8371;SDS011;4223;48.724;8.982;2022-12-10T12:35:27;7.93;;;7.17;;
8371;SDS011;4223;48.724;8.982;2022-12-10T12:38:06;8.20;;;7.40;;
8371;SDS011;4223;48.724;8.982;2022-12-10T12:40:45;7.70;;;7.10;;
8371;SDS011;4223;48.724;8.982;2022-12-10T12:43:18;6.43;;;5.83;;
8371;SDS011;4223;48.724;8.982;2022-12-10T12:45:49;7.73;;;7.03;;
8371;SDS011;4223;48.724;8.982;2022-12-10T12:48:20;6.10;;;5.63;;
8371;SDS011;4223;48.724;8.982;2022-12-10T12:50:53;5.80;;;5.47;;
8371;SDS011;4223;48.724;8.982;2022-12-10T12:53:26;8.90;;;6.90;;
8371;SDS011;4223;48.724;8.982;2022-12-10T12:55:56;7.37;;;6.83;;
8371;SDS011;4223;48.724;8.982;2022-12-10T12:58:31;7.77;;;7.07;;
8371;SDS011;4223;48.724;8.982;2022-12-10T13:01:06;11.73;;;7.33;;
8371;SDS011;4223;48.724;8.982;2022-12-10T13:03:43;5.80;;;5.40;;
8371;SDS011;4223;48.724;8.982;2022-12-10T13:06:15;7.57;;;6.83;;
8371;SDS011;4223;48.724;8.982;2022-12-10T13:08:46;6.63;;;6.17;;
8371;SDS011;4223;48.724;8.982;2022-12-10T13:11:16;7.07;;;6.43;;
8371;SDS011;4223;48.724;8.982;2022-12-10T13:17:02;7.40;;;6.80;;
8371;SDS011;4223;48.724;8.982;2022-12-10T13:19:36;10.47;;;7.53;;
8371;SDS011;4223;48.724;8.982;2022-12-10T13:22:04;9.47;;;8.13;;
8371;SDS011;4223;48.724;8.982;2022-12-10T13:24:46;7.50;;;6.97;;
8371;SDS011;4223;48.724;8.982;2022-12-10T13:27:32;8.40;;;7.60;;
8371;SDS011;4223;48.724;8.982;2022-12-10T13:30:00;7.13;;;6.37;;
8371;SDS011;4223;48.724;8.982;2022-12-10T13:32:43;7.33;;;6.87;;
8371;SDS011;4223;48.724;8.982;2022-12-10T13:35:18;8.63;;;7.80;;
8371;SDS011;4223;48.724;8.982;2022-12-10T13:37:53;5.50;;;5.10;;
8371;SDS011;4223;48.724;8.982;2022-12-10T13:40:24;7.60;;;7.00;;
8371;SDS011;4223;48.724;8.982;2022-12-10T13:42:56;7.27;;;6.70;;
8371;SDS011;4223;48.724;8.982;2022-12-10T13:45:43;10.43;;;8.00;;
8371;SDS011;4223;48.724;8.982;2022-12-10T13:48:17;7.00;;;6.30;;
8371;SDS011;4223;48.724;8.982;2022-12-10T13:51:09;7.60;;;7.00;;
8371;SDS011;4223;48.724;8.982;2022-12-10T13:53:47;8.93;;;8.13;;
8371;SDS011;4223;48.724;8.982;2022-12-10T13:56:24;8.43;;;7.70;;
8371;SDS011;4223;48.724;8.982;2022-12-10T13:58:57;6.70;;;6.13;;
8371;SDS011;4223;48.724;8.982;2022-12-10T14:01:39;7.60;;;6.87;;
8371;SDS011;4223;48.724;8.982;2022-12-10T14:04:18;5.90;;;5.50;;
8371;SDS011;4223;48.724;8.982;2022-12-10T14:06:57;8.43;;;7.53;;
8371;SDS011;4223;48.724;8.982;2022-12-10T14:09:26;7.30;;;6.73;;
8371;SDS011;4223;48.724;8.982;2022-12-10T14:11:59;7.87;;;7.17;;
8371;SDS011;4223;48.724;8.982;2022-12-10T14:14:31;8.87;;;8.00;;
8371;SDS011;4223;48.724;8.982;2022-12-10T14:17:00;7.27;;;6.67;;
8371;SDS011;4223;48.724;8.982;2022-12-10T14:19:30;8.83;;;7.73;;
8371;SDS011;4223;48.724;8.982;2022-12-10T14:21:58;9.60;;;8.73;;
8371;SDS011;4223;48.724;8.982;2022-12-10T14:24:32;12.10;;;7.90;;
8371;SDS011;4223;48.724;8.982;2022-12-10T14:27:05;7.27;;;6.77;;
8371;SDS011;4223;48.724;8.982;2022-12-10T14:29:42;7.83;;;7.20;;
8371;SDS011;4223;48.724;8.982;2022-12-10T14:32:10;8.83;;;7.93;;
8371;SDS011;4223;48.724;8.982;2022-12-10T14:34:40;8.20;;;7.60;;
8371;SDS011;4223;48.724;8.982;2022-12-10T14:37:09;8.33;;;7.67;;
8371;SDS011;4223;48.724;8.982;2022-12-10T14:39:39;11.50;;;7.83;;
8371;SDS011;4223;48.724;8.982;2022-12-10T14:42:10;7.43;;;6.73;;
8371;SDS011;4223;48.724;8.982;2022-12-10T14:44:41;8.33;;;7.63;;
8371;SDS011;4223;48.724;8.982;2022-12-10T14:47:12;5.17;;;4.83;;
8371;SDS011;4223;48.724;8.982;2022-12-10T14:49:42;8.37;;;7.57;;
8371;SDS011;4223;48.724;8.982;2022-12-10T14:52:11;7.60;;;7.10;;
8371;SDS011;4223;48.724;8.982;2022-12-10T14:54:39;6.87;;;6.37;;
8371;SDS011;4223;48.724;8.982;2022-12-10T14:57:08;6.87;;;6.30;;
8371;SDS011;4223;48.724;8.982;2022-12-10T14:59:40;9.20;;;8.47;;
8371;SDS011;4223;48.724;8.982;2022-12-10T15:02:12;6.63;;;6.23;;
8371;SDS011;4223;48.724;8.982;2022-12-10T15:04:43;8.67;;;7.87;;
8371;SDS011;4223;48.724;8.982;2022-12-10T15:07:13;8.30;;;7.70;;
8371;SDS011;4223;48.724;8.982;2022-12-10T15:09:43;7.40;;;6.90;;
8371;SDS011;4223;48.724;8.982;2022-12-10T15:12:22;6.17;;;5.63;;
8371;SDS011;4223;48.724;8.982;2022-12-10T15:15:09;6.13;;;5.67;;
8371;SDS011;4223;48.724;8.982;2022-12-10T15:17:40;10.80;;;9.20;;
8371;SDS011;4223;48.724;8.982;2022-12-10T15:20:21;16.80;;;8.97;;
8371;SDS011;4223;48.724;8.982;2022-12-10T15:22:49;8.80;;;8.03;;
8371;SDS011;4223;48.724;8.982;2022-12-10T15:25:22;8.37;;;7.57;;